Latest Weather Observations for Kingaroy

IDQ60801

Issued at 12:52 pm EST Monday 19 November 2018 (issued every 10 minutes, with the page automatically refreshed every 10 minutes)

About weather observations | Map of weather stations | Latest weather observations for QLD | Other Formats
Station Details ID: 040922 Name: KINGAROY AIRPORT Lat: -26.57 Lon: 151.84 Height: 433.67 m
Data from the previous 72 hours. | See also: Recent months at Kingaroy
Date/Time
EST
Temp
°C
App
Temp
°C
Dew
Point
°C
Rel
Hum
%
Delta-T
°C
Wind Press
QNH
hPa
Press
MSL
hPa
Rain since
9am
mm
Dir  Spd
km/h
Gust
km/h
Spd
kts
Gust
kts
19/12:30pm 23.7 21.9 12.0 48 6.8 E 13 28 7 15 1018.3 1016.3 0.0
19/12:00pm 23.8 22.2 12.8 50 6.4 ESE 13 22 7 12 1018.8 1016.8 0.0
19/11:30am 23.6 21.5 12.3 49 6.6 ESE 15 24 8 13 1019.2 1017.2 0.0
19/11:00am 24.7 22.8 13.0 48 6.9 E 15 22 8 12 1019.6 1017.6 0.0
19/10:30am 22.7 21.0 12.3 52 6.0 ESE 13 22 7 12 1019.9 1017.9 0.0
19/10:00am 22.3 19.8 12.3 53 5.8 ESE 17 22 9 12 1020.2 1018.2 0.0
19/09:30am 21.9 19.5 12.5 55 5.4 E 17 28 9 15 1020.4 1018.4 0.0
19/09:00am 20.7 17.8 12.4 59 4.8 E 19 30 10 16 1020.6 1018.6 0.0
19/08:30am 20.7 17.4 12.9 61 4.5 E 22 33 12 18 1020.7 1018.8 0.0
19/08:00am 20.9 17.5 13.6 63 4.3 ESE 24 33 13 18 1020.7 1018.8 0.0
19/07:30am 20.0 17.2 13.2 65 3.9 ESE 20 33 11 18 1020.7 1018.8 0.0
19/07:00am 19.0 16.5 13.6 71 3.1 ESE 19 28 10 15 1020.4 1018.4 0.0
19/06:30am 18.1 16.5 14.0 77 2.4 ESE 15 20 8 11 1020.3 1018.3 0.0
19/06:00am 16.8 16.0 13.9 83 1.7 ESE 11 15 6 8 1020.0 1018.0 0.0
19/05:30am 15.8 15.4 14.2 90 0.9 SE 9 15 5 8 1019.7 1017.7 0.0
19/05:00am 14.6 14.4 13.5 93 0.6 SSE 7 9 4 5 1019.6 1017.6 0.0
19/04:30am 14.3 13.8 12.7 90 0.9 SSE 7 9 4 5 1019.3 1017.3 0.0
19/04:00am 15.4 15.1 13.4 88 1.1 SE 7 9 4 5 1018.6 1016.7 0.0
19/03:30am 15.3 15.9 13.2 87 1.2 ESE 2 7 1 4 1018.8 1016.8 0.0
19/03:00am 15.9 15.7 13.6 86 1.3 ESE 7 11 4 6 1019.0 1017.0 0.0
19/02:30am 16.5 15.8 14.3 87 1.3 ESE 11 15 6 8 1019.0 1017.0 0.0
19/02:00am 16.7 16.1 14.7 88 1.2 E 11 15 6 8 1018.8 1016.8 0.0
19/01:30am 16.5 15.2 14.9 90 0.9 ESE 15 24 8 13 1019.0 1017.0 0.0
19/01:27am 16.5 14.9 14.9 90 0.9 ESE 17 26 9 14 1019.0 1017.0 0.0
19/01:12am 16.6 14.6 15.0 90 0.9 ESE 19 28 10 15 1019.0 1017.0 0.0
19/01:00am 17.3 16.4 14.8 85 1.5 ESE 13 24 7 13 1019.0 1017.0 0.0
19/12:30am 17.9 16.3 14.0 78 2.3 ESE 15 20 8 11 1019.3 1017.3 0.0
19/12:00am 18.0 17.2 13.9 77 2.4 E 11 20 6 11 1020.0 1018.0 0.0
 
Date/Time
EST
Temp
°C
App
Temp
°C
Dew
Point
°C
Rel
Hum
%
Delta-T
°C
Wind Press
QNH
hPa
Press
MSL
hPa
Rain since
9am
mm
Dir  Spd
km/h
Gust
km/h
Spd
kts
Gust
kts
18/11:30pm 18.0 17.1 13.7 76 2.5 E 11 15 6 8 1020.3 1018.3 0.0
18/11:00pm 18.1 16.8 13.8 76 2.5 E 13 17 7 9 1020.1 1018.1 0.0
18/10:30pm 18.2 17.7 13.7 75 2.6 E 9 13 5 7 1020.6 1018.6 0.0
18/10:00pm 18.2 17.3 13.7 75 2.6 E 11 17 6 9 1020.2 1018.2 0.0
18/09:30pm 18.3 17.0 13.6 74 2.7 E 13 20 7 11 1019.9 1017.9 0.0
18/09:00pm 18.7 16.6 13.6 72 3.0 ESE 17 20 9 11 1019.8 1017.8 0.0
18/08:30pm 18.8 16.0 13.2 70 3.2 E 20 30 11 16 1019.5 1017.5 0.0
18/08:00pm 19.0 16.4 13.2 69 3.3 ESE 19 28 10 15 1019.7 1017.7 0.0
18/07:30pm 19.4 16.6 13.3 68 3.5 E 20 30 11 16 1019.5 1017.5 0.0
18/07:00pm 19.7 16.6 13.4 67 3.7 E 22 33 12 18 1018.9 1016.9 0.0
18/06:30pm 20.4 17.7 13.6 65 4.0 E 20 30 11 16 1018.2 1016.2 0.0
18/06:00pm 20.9 18.6 14.1 65 4.0 E 19 26 10 14 1017.5 1015.5 0.0
18/05:30pm 21.3 19.0 14.0 63 4.3 E 19 30 10 16 1017.2 1015.2 0.0
18/05:00pm 21.8 18.2 14.2 62 4.5 E 26 39 14 21 1016.9 1014.9 0.0
18/04:30pm 22.1 18.3 14.7 63 4.4 E 28 41 15 22 1016.4 1014.3 0.0
18/04:00pm 22.6 19.2 14.7 61 4.8 E 26 35 14 19 1016.2 1014.2 0.0
18/03:30pm 23.3 19.0 14.3 57 5.4 ESE 30 48 16 26 1016.1 1014.1 0.0
18/03:28pm 23.5 19.5 14.2 56 5.6 ESE 28 48 15 26 1016.1 1014.1 0.0
18/03:00pm 24.7 21.4 15.1 55 5.9 ESE 26 41 14 22 1016.7 1014.7 0.0
18/02:30pm 25.5 22.2 14.9 52 6.5 E 26 39 14 21 1016.8 1014.8 0.0
18/02:00pm 24.6 21.7 15.0 55 5.8 ESE 24 35 13 19 1017.3 1015.3 0.0
18/01:30pm 25.7 22.5 14.2 49 7.0 ESE 24 41 13 22 1017.3 1015.3 0.0
18/01:00pm 25.5 23.3 14.9 52 6.5 ESE 20 35 11 19 1017.5 1015.5 0.0
18/12:30pm 26.4 24.5 15.8 52 6.6 ESE 20 32 11 17 1017.6 1015.6 0.0
18/12:00pm 24.5 22.0 14.0 52 6.3 ESE 20 33 11 18 1017.9 1015.9 0.0
18/11:30am 24.5 21.6 14.0 52 6.3 ESE 22 32 12 17 1018.3 1016.3 0.0
18/11:00am 24.3 22.1 15.0 56 5.7 ESE 20 30 11 16 1018.6 1016.7 0.0
18/10:30am 24.3 21.4 15.2 57 5.6 ESE 24 37 13 20 1018.9 1016.9 0.0
18/10:00am 23.6 21.6 15.4 60 5.0 ESE 20 33 11 18 1018.9 1016.9 0.0
18/09:30am 23.0 19.8 15.3 62 4.7 ESE 26 44 14 24 1019.1 1017.1 0.0
18/09:00am 22.6 20.6 15.4 64 4.4 ESE 20 33 11 18 1019.0 1017.0 4.2
18/08:30am 21.0 18.3 14.6 67 3.8 SE 22 37 12 20 1018.9 1016.9 4.2
18/08:00am 21.3 20.0 15.8 71 3.3 SE 17 28 9 15 1018.5 1016.5 4.2
18/07:30am 19.8 18.0 15.4 76 2.7 SE 19 30 10 16 1018.4 1016.4 4.2
18/07:17am 19.6 18.4 16.1 80 2.1 ESE 17 26 9 14 1018.1 1016.1 4.2
18/07:00am 18.9 17.7 16.1 84 1.7 ESE 17 30 9 16 1018.0 1016.0 4.2
18/06:30am 17.6 16.3 15.8 89 1.1 ESE 17 28 9 15 1017.7 1015.7 4.2
18/06:00am 17.4 15.7 16.3 93 0.7 ESE 20 30 11 16 1017.2 1015.2 4.2
18/05:30am 17.2 16.4 16.1 93 0.7 ESE 15 28 8 15 1017.2 1015.2 4.2
18/05:00am 17.2 17.1 15.9 92 0.8 SE 11 17 6 9 1016.9 1014.9 4.2
18/04:30am 17.1 16.9 15.8 92 0.8 SE 11 17 6 9 1016.4 1014.3 4.2
18/04:00am 16.9 16.4 15.8 93 0.7 SE 13 19 7 10 1016.2 1014.2 4.2
18/03:30am 16.5 16.0 16.0 97 0.3 SE 13 20 7 11 1016.0 1014.0 4.2
18/03:00am 16.5 16.0 15.9 96 0.4 SE 13 17 7 9 1016.0 1014.0 4.2
18/02:30am 16.2 16.8 15.9 98 0.2 SE 7 9 4 5 1016.1 1014.1 4.0
18/02:05am 16.1 16.9 15.8 98 0.2 SE 6 9 3 5 1016.4 1014.3 4.0
18/02:00am 15.8 16.2 15.2 96 0.4 SE 7 9 4 5 1016.2 1014.2 4.0
18/01:41am 16.0 16.4 15.2 95 0.5 SSE 7 11 4 6 1016.4 1014.3 4.0
18/01:30am 16.2 15.9 15.4 95 0.5 SSE 11 15 6 8 1016.4 1014.3 4.0
18/01:00am 16.6 17.7 15.5 93 0.7 SSE 4 7 2 4 1017.3 1015.3 4.0
18/12:30am 17.1 19.0 15.8 92 0.8 CALM 0 0 0 0 1017.5 1015.5 4.0
18/12:00am 17.1 18.0 16.0 93 0.7 NW 6 9 3 5 1018.0 1016.0 4.0
 
Date/Time
EST
Temp
°C
App
Temp
°C
Dew
Point
°C
Rel
Hum
%
Delta-T
°C
Wind Press
QNH
hPa
Press
MSL
hPa
Rain since
9am
mm
Dir  Spd
km/h
Gust
km/h
Spd
kts
Gust
kts
17/11:30pm 17.0 18.6 16.0 94 0.6 E 2 9 1 5 1017.9 1015.9 4.0
17/11:17pm 16.9 18.9 15.9 94 0.6 CALM 0 0 0 0 1017.9 1015.9 4.0
17/11:00pm 16.7 17.3 15.7 94 0.6 N 7 11 4 6 1018.1 1016.1 4.0
17/10:30pm 17.0 16.5 15.9 93 0.7 SE 13 19 7 10 1018.0 1016.0 4.0
17/10:00pm 17.1 16.6 16.0 93 0.7 ESE 13 17 7 9 1018.3 1016.3 4.0
17/09:30pm 17.2 16.7 15.9 92 0.8 SE 13 20 7 11 1017.5 1015.5 4.0
17/09:00pm 17.3 17.2 16.0 92 0.8 ESE 11 17 6 9 1017.0 1015.0 4.0
17/08:30pm 17.4 17.7 16.1 92 0.8 ESE 9 11 5 6 1016.2 1014.2 4.0
17/08:00pm 17.3 18.9 16.0 92 0.8 E 2 9 1 5 1015.6 1013.6 4.0
17/07:30pm 17.2 18.1 16.1 93 0.7 NE 6 9 3 5 1015.3 1013.3 4.0
17/07:00pm 17.0 16.9 16.0 94 0.6 E 11 19 6 10 1014.5 1012.4 4.0
17/06:30pm 17.4 17.0 16.1 92 0.8 ENE 13 26 7 14 1015.0 1013.0 3.8
17/06:08pm 17.4 16.4 15.7 90 1.0 E 15 24 8 13 1014.1 1012.0 3.4
17/06:00pm 17.4 17.2 15.7 90 1.0 ESE 11 20 6 11 1015.1 1013.1 3.4
17/05:52pm 17.4 15.6 15.6 89 1.1 SE 19 30 10 16 1014.9 1012.9 2.6
17/05:47pm 17.6 14.0 15.2 86 1.4 S 28 46 15 25 1015.1 1013.1 1.0
17/05:40pm 18.5 12.2 14.6 78 2.3 S 41 57 22 31 1015.3 1013.3 0.0
17/05:30pm 20.0 10.7 14.1 69 3.5 S 56 74 30 40 1014.2 1012.1 0.0
17/05:19pm 22.5 14.8 13.3 56 5.4 S 46 76 25 41 1013.5 1011.5 0.0
17/05:10pm 27.4 25.2 12.2 39 9.0 SW 15 61 8 33 1013.3 1011.3 0.0
17/05:00pm 29.0 28.7 14.4 41 9.0 NW 9 13 5 7 1012.0 1009.9 0.0
17/04:30pm 30.4 28.0 13.7 36 10.2 NW 19 24 10 13 1011.2 1009.2 0.0
17/04:00pm 28.8 26.8 15.0 43 8.6 NNW 19 24 10 13 1011.1 1009.1 0.0
17/03:30pm 28.6 26.7 15.2 44 8.3 N 19 26 10 14 1011.5 1009.4 0.0
17/03:00pm 29.0 27.1 15.2 43 8.6 NNW 19 24 10 13 1012.0 1009.9 0.0
17/02:30pm 29.2 27.2 15.0 42 8.8 N 19 26 10 14 1012.4 1010.3 0.0
17/02:00pm 29.0 27.3 13.6 38 9.4 NNW 15 22 8 12 1013.2 1011.2 0.0
17/01:30pm 30.7 29.8 15.9 40 9.4 NNW 15 26 8 14 1014.1 1012.0 0.0
17/01:00pm 29.1 27.8 14.9 42 8.8 N 15 28 8 15 1014.5 1012.4 0.0
17/12:30pm 30.1 29.4 15.4 41 9.2 NNE 13 20 7 11 1014.9 1012.9 0.0
17/12:00pm 28.7 28.1 15.6 45 8.2 NNW 13 24 7 13 1015.3 1013.3 0.0
17/11:30am 27.8 25.9 14.1 43 8.3 NNW 17 28 9 15 1015.8 1013.8 0.0
17/11:00am 27.5 26.5 15.5 48 7.5 NNW 15 20 8 11 1016.5 1014.4 0.0
17/10:30am 27.1 26.1 15.5 49 7.2 NNW 15 24 8 13 1016.9 1014.9 0.0
17/10:00am 26.4 25.3 15.4 50 6.8 NNE 15 24 8 13 1017.2 1015.2 0.0
17/09:30am 24.9 24.1 15.0 54 6.0 NNW 13 24 7 13 1017.5 1015.5 0.0
17/09:00am 24.0 22.4 15.0 57 5.5 N 17 26 9 14 1017.6 1015.6 0.0
17/08:30am 23.5 22.8 15.3 60 5.0 NNW 13 20 7 11 1017.7 1015.7 0.0
17/08:00am 23.3 22.3 15.6 62 4.7 N 15 24 8 13 1017.6 1015.6 0.0
17/07:30am 22.6 21.7 15.9 66 4.1 N 15 26 8 14 1017.6 1015.6 0.0
17/07:08am 21.1 19.7 15.6 71 3.3 N 17 24 9 13 1017.5 1015.5 0.0
17/07:00am 20.1 19.2 15.9 77 2.6 N 15 20 8 11 1017.4 1015.4 0.0
17/06:32am 19.1 19.9 16.3 84 1.7 N 7 13 4 7 1017.2 1015.2 0.0
17/06:30am 19.0 19.9 16.2 84 1.7 N 6 13 3 7 1017.2 1015.2 0.0
17/06:16am 18.8 20.8 16.0 84 1.7 CALM 0 0 0 0 1017.2 1015.2 0.0
17/06:00am 17.8 19.6 15.6 87 1.3 CALM 0 0 0 0 1017.2 1015.2 0.0
17/05:55am 17.5 19.2 15.3 87 1.3 CALM 0 4 0 2 1017.2 1015.2 0.0
17/05:30am 17.0 17.3 14.6 86 1.4 E 6 9 3 5 1016.8 1014.8 0.0
17/05:13am 16.7 18.1 14.3 86 1.4 CALM 0 0 0 0 1016.9 1014.9 0.0
17/05:00am 17.0 18.6 14.8 87 1.3 CALM 0 0 0 0 1016.9 1014.9 0.0
17/04:30am 17.3 18.9 14.8 85 1.5 CALM 0 0 0 0 1016.5 1014.4 0.0
17/04:00am 17.6 18.4 14.9 84 1.6 ENE 4 7 2 4 1016.0 1014.0 0.0
17/03:30am 18.3 18.7 15.4 83 1.7 ESE 7 9 4 5 1015.9 1013.9 0.0
17/03:15am 18.1 18.5 15.2 83 1.7 ESE 7 9 4 5 1016.0 1014.0 0.0
17/03:00am 18.0 18.5 14.9 82 1.8 E 6 7 3 4 1015.8 1013.8 0.0
17/02:30am 17.6 19.2 14.9 84 1.6 CALM 0 7 0 4 1016.1 1014.1 0.0
17/02:00am 16.9 16.6 13.2 79 2.1 ESE 7 7 4 4 1015.9 1013.9 0.0
17/01:30am 17.7 17.7 13.6 77 2.4 E 6 9 3 5 1016.1 1014.1 0.0
17/01:00am 18.2 18.0 13.7 75 2.6 E 7 11 4 6 1016.7 1014.7 0.0
17/12:30am 18.9 19.1 14.2 74 2.8 E 6 9 3 5 1016.9 1014.9 0.0
17/12:00am 19.1 19.2 14.4 74 2.8 ESE 7 13 4 7 1017.2 1015.2 0.0
 
Date/Time
EST
Temp
°C
App
Temp
°C
Dew
Point
°C
Rel
Hum
%
Delta-T
°C
Wind Press
QNH
hPa
Press
MSL
hPa
Rain since
9am
mm
Dir  Spd
km/h
Gust
km/h
Spd
kts
Gust
kts
16/11:30pm 19.6 18.9 14.4 72 3.1 E 11 17 6 9 1017.2 1015.2 0.0
16/11:00pm 19.8 18.9 13.7 68 3.6 ESE 11 15 6 8 1017.3 1015.3 0.0
16/10:30pm 20.1 20.4 13.3 65 4.0 ENE 4 7 2 4 1016.8 1014.8 0.0
16/10:00pm 20.4 19.8 13.6 65 4.0 ENE 9 13 5 7 1016.9 1014.9 0.0
16/09:30pm 20.8 20.6 14.7 68 3.6 ENE 9 17 5 9 1016.8 1014.8 0.0
16/09:00pm 21.6 20.8 15.2 67 3.9 NE 13 26 7 14 1016.6 1014.5 0.0
16/08:30pm 22.4 21.4 15.7 66 4.1 NNE 15 22 8 12 1016.1 1014.1 0.0
16/08:00pm 22.7 22.8 15.5 64 4.4 NNE 9 15 5 8 1015.6 1013.6 0.0
16/07:30pm 23.8 24.0 15.8 61 4.9 ENE 9 19 5 10 1015.3 1013.3 0.0
16/07:00pm 25.1 24.5 15.7 56 5.8 ENE 13 22 7 12 1014.9 1012.9 0.0
16/06:30pm 26.5 25.9 14.6 48 7.3 NE 11 24 6 13 1014.3 1012.2 0.0
16/06:00pm 27.0 26.7 14.4 46 7.7 NE 9 15 5 8 1013.8 1011.8 0.0
16/05:30pm 27.9 26.6 13.8 42 8.5 NNE 13 22 7 12 1013.6 1011.6 0.0
16/05:00pm 30.0 29.2 12.9 35 10.3 NNE 9 15 5 8 1013.5 1011.5 0.0
16/04:30pm 31.0 29.9 11.9 31 11.4 ENE 9 13 5 7 1013.5 1011.5 0.0
16/04:00pm 31.6 31.0 13.4 33 11.1 SE 9 15 5 8 1013.5 1011.5 0.0
16/03:30pm 30.3 29.8 12.7 34 10.6 SE 7 13 4 7 1013.8 1011.8 0.0
16/03:00pm 30.1 29.3 13.0 35 10.3 N 9 17 5 9 1014.0 1011.9 0.0
16/02:30pm 29.9 28.7 12.8 35 10.3 NW 11 15 6 8 1014.5 1012.4 0.0
16/02:00pm 29.1 28.6 13.7 38 9.4 NE 9 13 5 7 1015.1 1013.1 0.0
16/01:30pm 29.5 30.4 15.2 41 8.9 NNE 4 13 2 7 1015.4 1013.4 0.0
16/01:00pm 28.8 28.8 14.2 40 8.9 WNW 7 20 4 11 1015.9 1013.9 0.0

Other Formats:

Comma delimited format used in spreadsheet applications
http://www.bom.gov.au/fwo/IDQ60801/IDQ60801.94549.axf

JavaScript Object Notation format (JSON) in row-major order
http://www.bom.gov.au/fwo/IDQ60801/IDQ60801.94549.json